createdAt,value
2017-06-14T06:54:59.383Z,100.000
2017-06-14T06:59:02.190Z,100.000
2017-06-14T07:12:42.535Z,100.000
2017-06-14T07:15:26.366Z,100.000
2017-06-14T07:19:05.690Z,100.000
2017-06-14T07:28:50.022Z,100.000
2017-06-14T07:31:34.121Z,100.000
2017-06-14T07:34:28.191Z,100.000
2017-06-14T07:37:22.986Z,100.000
2017-06-14T07:40:18.026Z,100.000
2017-06-14T07:43:13.089Z,100.000
2017-06-14T07:46:08.071Z,100.000
2017-06-14T07:49:03.073Z,100.000
2017-06-14T07:51:58.224Z,100.000
2017-06-14T07:54:53.431Z,100.000
2017-06-14T07:57:50.568Z,100.000
2017-06-14T08:00:43.846Z,100.000
2017-06-14T08:03:39.007Z,100.000
2017-06-14T08:06:34.196Z,100.000
2017-06-14T08:09:29.429Z,100.000
2017-06-14T08:13:00.290Z,100.000
2017-06-14T08:15:45.661Z,100.000
2017-06-14T08:18:42.403Z,100.000
2017-06-14T08:21:35.841Z,100.000
2017-06-14T08:24:30.983Z,100.000
2017-06-14T08:27:26.112Z,100.000
2017-06-14T08:30:21.302Z,100.000
2017-06-14T08:33:18.213Z,100.000
2017-06-14T08:36:11.767Z,100.000
2017-06-14T08:39:06.970Z,100.000
2017-06-14T08:42:02.488Z,100.000
2017-06-14T08:44:58.004Z,100.000
2017-06-14T08:47:53.463Z,100.000
2017-06-14T08:50:49.177Z,100.000
2017-06-14T08:53:44.618Z,100.000
2017-06-14T08:56:39.912Z,100.000
2017-06-14T08:59:35.169Z,100.000
2017-06-14T09:02:32.178Z,100.000
2017-06-14T09:05:27.401Z,100.000
2017-06-14T09:08:20.925Z,100.000
2017-06-14T09:11:16.256Z,100.000
2017-06-14T09:14:11.466Z,100.000
2017-06-14T09:17:06.702Z,100.000
2017-06-14T09:20:02.000Z,100.000
2017-06-14T09:22:57.490Z,100.000
2017-06-14T09:25:53.309Z,100.000
2017-06-14T09:28:48.956Z,100.000
2017-06-14T09:31:46.483Z,100.000
2017-06-14T09:34:40.556Z,100.000
2017-06-14T09:37:36.486Z,100.000
2017-06-14T09:40:34.219Z,100.000
2017-06-14T09:43:28.527Z,100.000
2017-06-14T09:46:24.409Z,100.000
2017-06-14T09:49:20.053Z,100.000
2017-06-14T09:52:15.916Z,100.000
2017-06-14T09:55:11.773Z,100.000
2017-06-14T09:58:07.956Z,100.000
2017-06-14T10:01:04.071Z,100.000
2017-06-14T10:04:00.363Z,100.000
2017-06-14T10:06:56.337Z,89.773
2017-06-14T10:09:52.438Z,97.096
2017-06-14T10:12:48.636Z,98.021
2017-06-14T10:15:44.733Z,76.244
2017-06-14T10:18:40.892Z,81.250
2017-06-14T10:21:37.044Z,75.672
2017-06-14T10:24:33.030Z,70.754
2017-06-14T10:27:29.030Z,82.121
2017-06-14T10:30:24.855Z,79.795
2017-06-14T10:33:20.361Z,75.147
2017-06-14T10:36:15.773Z,69.454
2017-06-14T10:39:11.213Z,81.287
2017-06-14T10:42:06.571Z,76.672
2017-06-14T10:45:02.068Z,86.148
2017-06-14T10:47:57.412Z,86.618
2017-06-14T10:50:52.983Z,87.028
2017-06-14T10:53:48.472Z,85.399
2017-06-14T10:56:43.856Z,85.861
2017-06-14T10:59:39.158Z,89.761
2017-06-14T11:02:34.643Z,88.444
2017-06-14T11:05:30.091Z,88.943
2017-06-14T11:08:25.615Z,93.751
2017-06-14T11:11:20.984Z,92.305
2017-06-14T11:14:16.368Z,90.998
2017-06-14T11:17:11.676Z,95.212
2017-06-14T11:20:07.038Z,94.106
2017-06-14T11:23:02.307Z,98.798
2017-06-14T11:25:57.743Z,89.317
2017-06-14T11:28:52.896Z,93.486
2017-06-14T11:31:49.991Z,100.000
2017-06-14T11:34:43.400Z,92.327
2017-06-14T11:37:38.605Z,98.079
2017-06-14T11:40:33.739Z,97.721
2017-06-14T11:43:29.022Z,98.156
2017-06-14T11:46:24.181Z,100.000
2017-06-14T11:49:19.414Z,99.702
2017-06-14T11:52:16.486Z,100.000
2017-06-14T11:55:09.916Z,100.000
2017-06-14T11:58:06.818Z,100.000
2017-06-14T12:01:00.306Z,99.937
2017-06-14T12:03:55.526Z,100.000
2017-06-14T12:06:50.751Z,100.000
2017-06-14T12:09:46.055Z,100.000
2017-06-14T12:12:42.953Z,100.000
2017-06-14T12:15:36.597Z,100.000
2017-06-14T12:18:31.924Z,100.000
2017-06-14T12:21:27.197Z,100.000
2017-06-14T12:24:22.515Z,100.000
2017-06-14T12:27:17.699Z,100.000
2017-06-14T12:30:13.059Z,100.000
2017-06-14T12:33:08.385Z,100.000
2017-06-14T12:36:03.722Z,100.000
2017-06-14T12:38:59.059Z,100.000
2017-06-14T12:41:54.451Z,100.000
2017-06-14T12:44:49.678Z,100.000
2017-06-14T12:47:45.007Z,100.000
2017-06-14T12:50:40.166Z,100.000
2017-06-14T12:53:35.417Z,100.000
2017-06-14T12:56:32.360Z,100.000
2017-06-14T12:59:25.738Z,100.000
2017-06-14T13:02:22.757Z,100.000
2017-06-14T13:05:16.272Z,100.000
2017-06-14T13:08:11.354Z,100.000
2017-06-14T13:11:06.860Z,100.000
2017-06-14T13:14:02.137Z,100.000
2017-06-14T13:16:57.527Z,100.000
2017-06-14T13:19:52.747Z,100.000
2017-06-14T13:22:48.012Z,100.000
2017-06-14T13:25:43.185Z,100.000
2017-06-14T13:28:38.430Z,100.000
2017-06-14T13:31:33.642Z,100.000
2017-06-14T13:34:29.059Z,100.000
2017-06-14T13:37:24.218Z,100.000
2017-06-14T13:40:19.439Z,100.000
2017-06-14T13:43:14.671Z,100.000
2017-06-14T13:46:09.902Z,100.000
2017-06-14T13:49:05.061Z,100.000
2017-06-14T13:52:00.382Z,100.000
2017-06-14T13:54:55.621Z,100.000
2017-06-14T13:57:50.858Z,100.000
2017-06-14T14:00:46.035Z,100.000
2017-06-14T14:03:41.238Z,100.000
2017-06-14T14:06:38.223Z,100.000
2017-06-14T14:09:31.566Z,100.000
2017-06-14T14:12:26.760Z,100.000
2017-06-14T14:15:21.871Z,100.000
2017-06-14T14:18:17.215Z,100.000
2017-06-14T14:21:14.102Z,100.000
2017-06-14T14:24:07.750Z,100.000
2017-06-14T14:27:03.062Z,100.000
2017-06-14T14:29:58.271Z,100.000
2017-06-14T14:32:53.414Z,100.000
2017-06-14T14:35:48.715Z,100.000
2017-06-14T14:38:43.860Z,100.000
2017-06-14T14:41:39.166Z,100.000
2017-06-14T14:44:34.381Z,100.000
2017-06-14T14:47:29.577Z,100.000
2017-06-14T14:50:24.722Z,100.000
2017-06-14T14:53:20.025Z,100.000
2017-06-14T14:56:15.234Z,100.000
2017-06-14T14:59:10.412Z,100.000
2017-06-14T15:02:05.836Z,100.000
2017-06-14T15:05:01.071Z,100.000
2017-06-14T15:07:56.178Z,100.000
2017-06-14T15:10:51.273Z,100.000
2017-06-14T15:13:46.510Z,100.000
2017-06-14T15:16:41.694Z,100.000
2017-06-14T15:19:36.918Z,100.000
2017-06-14T15:22:33.871Z,100.000
2017-06-14T15:25:27.348Z,100.000
2017-06-14T15:28:22.519Z,100.000
2017-06-14T15:31:19.502Z,100.000
2017-06-14T15:34:12.923Z,100.000
2017-06-14T15:37:08.262Z,100.000
2017-06-14T15:40:03.392Z,100.000
2017-06-14T15:42:58.562Z,100.000
2017-06-14T15:45:53.750Z,100.000
2017-06-14T15:48:48.970Z,100.000
2017-06-14T15:51:44.187Z,100.000
2017-06-14T15:54:39.368Z,100.000
2017-06-14T15:57:34.606Z,100.000
2017-06-14T16:00:29.779Z,100.000
2017-06-14T16:03:24.898Z,100.000
2017-06-14T16:06:20.202Z,100.000
2017-06-14T16:09:15.489Z,100.000
2017-06-14T16:12:10.620Z,100.000
2017-06-14T16:15:05.808Z,100.000
2017-06-14T16:18:01.017Z,100.000
2017-06-14T16:20:56.230Z,100.000
2017-06-14T16:23:51.278Z,100.000
2017-06-14T16:26:46.476Z,100.000
2017-06-14T16:29:41.638Z,100.000
2017-06-14T16:32:36.786Z,100.000
2017-06-14T16:35:31.886Z,100.000
2017-06-14T16:38:27.136Z,100.000
2017-06-14T16:41:22.285Z,100.000
2017-06-14T16:44:17.544Z,100.000
2017-06-14T16:47:12.732Z,100.000
2017-06-14T16:50:07.872Z,100.000
2017-06-14T16:53:02.980Z,100.000
2017-06-14T16:55:58.098Z,100.000
2017-06-14T16:58:53.140Z,100.000
2017-06-14T17:01:48.387Z,100.000
2017-06-14T17:04:43.574Z,100.000
2017-06-14T17:07:38.664Z,100.000
2017-06-14T17:10:33.912Z,100.000
2017-06-14T17:13:29.039Z,100.000
2017-06-14T17:16:24.186Z,100.000
2017-06-14T17:19:19.263Z,100.000
2017-06-14T17:22:14.484Z,100.000
2017-06-14T17:25:11.310Z,100.000
2017-06-14T17:28:04.740Z,100.000
2017-06-14T17:30:59.768Z,100.000
2017-06-14T17:33:55.039Z,100.000
2017-06-14T17:36:50.229Z,100.000
2017-06-14T17:39:45.297Z,100.000
2017-06-14T17:42:40.328Z,100.000
2017-06-14T17:45:35.391Z,100.000
2017-06-14T17:48:30.527Z,100.000
2017-06-14T17:51:25.699Z,100.000
2017-06-14T17:54:20.744Z,100.000
2017-06-14T17:57:15.840Z,100.000
2017-06-14T18:00:10.989Z,100.000
2017-06-14T18:03:06.098Z,100.000
2017-06-14T18:06:01.146Z,100.000
2017-06-14T18:08:56.310Z,100.000
2017-06-14T18:11:51.374Z,100.000
2017-06-14T18:14:46.488Z,100.000
2017-06-14T18:17:43.389Z,100.000
2017-06-14T18:20:36.744Z,100.000
2017-06-14T18:23:31.949Z,100.000
2017-06-14T18:26:27.054Z,100.000
2017-06-14T18:29:22.181Z,100.000
2017-06-14T18:32:17.184Z,100.000
2017-06-14T18:35:12.301Z,100.000
2017-06-14T18:38:07.425Z,100.000
2017-06-14T18:41:02.508Z,100.000
2017-06-14T18:43:57.507Z,100.000
2017-06-14T18:46:52.552Z,100.000
2017-06-14T18:49:47.594Z,100.000
2017-06-14T18:52:42.633Z,100.000
2017-06-14T18:55:37.748Z,100.000
2017-06-14T18:58:32.672Z,100.000
2017-06-14T19:01:29.429Z,100.000
2017-06-14T19:04:22.874Z,100.000
2017-06-14T19:07:19.625Z,100.000
2017-06-14T19:10:12.864Z,100.000
2017-06-14T19:13:07.891Z,100.000
2017-06-14T19:16:02.953Z,100.000
2017-06-14T19:18:57.988Z,100.000
2017-06-14T19:21:53.067Z,100.000
2017-06-14T19:24:48.045Z,100.000
2017-06-14T19:27:43.087Z,100.000
2017-06-14T19:30:38.095Z,100.000
2017-06-14T19:33:33.110Z,100.000
2017-06-14T19:36:28.164Z,100.000
2017-06-14T19:39:24.910Z,100.000
2017-06-14T19:42:18.163Z,100.000
2017-06-14T19:45:13.225Z,100.000
2017-06-14T19:48:08.142Z,100.000
2017-06-14T19:51:03.160Z,100.000
2017-06-14T19:53:59.909Z,100.000
2017-06-14T19:56:53.177Z,100.000
2017-06-14T19:59:50.020Z,100.000
2017-06-14T20:02:43.146Z,100.000
2017-06-14T20:05:38.185Z,100.000
2017-06-14T20:08:33.076Z,100.000
2017-06-14T20:11:27.990Z,100.000
2017-06-14T20:14:22.918Z,100.000
2017-06-14T20:17:17.837Z,100.000
2017-06-14T20:20:12.925Z,100.000
2017-06-14T20:23:07.897Z,100.000
2017-06-14T20:26:02.726Z,100.000
2017-06-14T20:28:57.536Z,100.000
2017-06-14T20:31:52.355Z,100.000
2017-06-14T20:34:47.148Z,100.000
2017-06-14T20:37:42.010Z,100.000
2017-06-14T20:40:36.868Z,100.000
2017-06-14T20:43:31.785Z,100.000
2017-06-14T20:48:53.574Z,100.000
2017-06-14T20:51:38.166Z,100.000
2017-06-14T20:54:32.597Z,100.000
2017-06-14T20:57:38.763Z,100.000
2017-06-14T21:03:52.311Z,100.000
2017-06-14T21:07:44.318Z,100.000
2017-06-14T21:10:29.305Z,100.000
2017-06-14T21:13:23.745Z,100.000
2017-06-14T21:16:18.431Z,100.000
2017-06-14T21:20:32.432Z,100.000
2017-06-14T21:34:01.735Z,100.000
2017-06-14T21:36:45.411Z,100.000
2017-06-14T21:50:34.768Z,100.000
2017-06-14T22:06:29.421Z,100.000
2017-06-14T22:57:36.983Z,100.000
